Time;durP1;ratioP1;P1;durP2;ratioP2;P2;SDS_P1;SDS_P2;PMS_P1;PMS_P2;Temp;Humidity;BMP_temperature;BMP_pressure;BME280_temperature;BME280_humidity;BME280_pressure;Samples;Min_cycle;Max_cycle;Signal;HPM_P1;HPM_P2
2022/01/26 00:06:10;;;;;;;57.60;28.05;;;;;;;;;;5023573;28;20063;-52
2022/01/26 00:08:37;;;;;;;69.18;32.20;;;;;;;;;;5024745;28;20520;-52
2022/01/26 00:11:03;;;;;;;61.42;30.45;;;;;;;;;;5023614;28;20025;-49
2022/01/26 00:13:29;;;;;;;52.83;28.83;;;;;;;;;;5022879;28;20782;-49
2022/01/26 00:15:57;;;;;;;53.00;27.63;;;;;;;;;;5023360;28;20432;-56
2022/01/26 00:18:23;;;;;;;51.22;27.75;;;;;;;;;;5023305;28;20022;-53
2022/01/26 00:21:03;;;;;;;54.63;27.15;;;;;;;;;;5023371;28;20032;-52
2022/01/26 00:26:31;;;;;;;52.30;25.83;;;;;;;;;;5075498;28;20059;-48
2022/01/26 00:29:11;;;;;;;55.42;26.80;;;;;;;;;;5074981;28;20478;-54
2022/01/26 00:40:00;;;;;;;47.08;25.17;;;;;;;;;;5075359;28;20039;-48
2022/01/26 00:42:32;;;;;;;45.25;24.00;;;;;;;;;;5074248;28;20373;-49
2022/01/26 00:44:58;;;;;;;42.92;22.83;;;;;;;;;;5075015;28;20369;-48
2022/01/26 00:47:24;;;;;;;43.58;23.77;;;;;;;;;;5074745;28;20021;-49
2022/01/26 00:49:52;;;;;;;49.88;25.65;;;;;;;;;;5074792;28;20029;-51
2022/01/26 00:52:27;;;;;;;53.70;24.77;;;;;;;;;;5074700;28;20025;-48
2022/01/26 00:54:54;;;;;;;53.50;25.33;;;;;;;;;;5074862;28;20028;-50
2022/01/26 00:57:21;;;;;;;48.65;25.10;;;;;;;;;;5074669;28;20023;-48
2022/01/26 00:59:47;;;;;;;42.15;22.95;;;;;;;;;;5074867;28;20054;-49
2022/01/26 01:02:13;;;;;;;40.10;23.67;;;;;;;;;;5074603;28;20021;-48
2022/01/26 01:04:40;;;;;;;48.53;25.30;;;;;;;;;;5074479;28;20095;-54
2022/01/26 01:07:11;;;;;;;50.45;23.42;;;;;;;;;;5074395;28;20032;-52
2022/01/26 01:09:37;;;;;;;49.55;24.38;;;;;;;;;;5074350;28;20016;-46
2022/01/26 01:12:06;;;;;;;45.55;22.13;;;;;;;;;;5074319;28;20031;-50
2022/01/26 01:14:36;;;;;;;43.28;23.10;;;;;;;;;;5074404;28;20020;-48
2022/01/26 01:17:04;;;;;;;41.20;22.30;;;;;;;;;;5074396;28;20032;-52
2022/01/26 01:19:39;;;;;;;67.07;31.27;;;;;;;;;;5074397;28;20472;-54
2022/01/26 01:22:28;;;;;;;44.45;23.25;;;;;;;;;;5074058;28;20036;-54
2022/01/26 01:33:06;;;;;;;58.55;22.15;;;;;;;;;;5074042;28;20059;-52
2022/01/26 01:35:35;;;;;;;58.22;26.90;;;;;;;;;;5073949;28;20044;-47
2022/01/26 01:38:09;;;;;;;40.85;21.70;;;;;;;;;;5073975;28;20043;-49
2022/01/26 01:40:36;;;;;;;43.42;23.75;;;;;;;;;;5073827;28;20043;-48
2022/01/26 01:43:03;;;;;;;41.92;22.65;;;;;;;;;;5074073;28;20104;-47
2022/01/26 01:45:34;;;;;;;43.90;23.10;;;;;;;;;;5073720;28;20021;-49
2022/01/26 01:48:00;;;;;;;48.63;25.50;;;;;;;;;;5073922;28;20078;-49
2022/01/26 01:50:26;;;;;;;45.70;25.05;;;;;;;;;;5073714;28;20031;-49
2022/01/26 01:52:59;;;;;;;45.95;24.80;;;;;;;;;;5073568;28;20085;-50
2022/01/26 01:55:27;;;;;;;46.40;25.02;;;;;;;;;;5073462;28;20016;-48
2022/01/26 01:57:53;;;;;;;43.35;22.63;;;;;;;;;;5073434;28;20043;-49
2022/01/26 02:00:21;;;;;;;42.40;23.20;;;;;;;;;;5073582;28;20025;-48
2022/01/26 02:02:48;;;;;;;43.25;24.15;;;;;;;;;;5073574;28;20021;-52
2022/01/26 02:05:14;;;;;;;44.17;24.25;;;;;;;;;;5072097;28;20039;-52
2022/01/26 02:07:40;;;;;;;47.88;23.42;;;;;;;;;;5073359;28;20032;-54
2022/01/26 02:10:06;;;;;;;45.05;24.08;;;;;;;;;;5073315;28;20066;-55
2022/01/26 02:12:34;;;;;;;42.30;23.70;;;;;;;;;;5073275;28;20038;-47
2022/01/26 02:15:08;;;;;;;41.53;23.38;;;;;;;;;;5073659;28;20032;-48
2022/01/26 02:53:47;;;;;;;45.53;25.88;;;;;;;;;;5050630;28;20083;-48
2022/01/26 02:56:27;;;;;;;45.20;26.02;;;;;;;;;;5050645;28;20151;-50
2022/01/26 03:01:39;;;;;;;48.15;26.23;;;;;;;;;;5060530;28;20040;-52
2022/01/26 03:04:18;;;;;;;49.78;26.65;;;;;;;;;;5072788;28;20024;-50
2022/01/26 03:09:25;;;;;;;43.97;25.58;;;;;;;;;;5073003;28;20028;-53
2022/01/26 03:11:52;;;;;;;51.17;27.33;;;;;;;;;;5072681;28;20052;-52
2022/01/26 03:17:02;;;;;;;50.05;27.25;;;;;;;;;;5072736;28;20036;-52
2022/01/26 03:30:37;;;;;;;52.72;28.35;;;;;;;;;;5050519;28;20139;-55
2022/01/26 03:35:46;;;;;;;51.92;29.33;;;;;;;;;;5050456;28;20021;-49
2022/01/26 03:38:22;;;;;;;52.53;28.35;;;;;;;;;;5050398;28;20037;-50
2022/01/26 03:40:58;;;;;;;55.05;28.88;;;;;;;;;;5050295;28;20032;-55
2022/01/26 03:43:24;;;;;;;55.22;29.63;;;;;;;;;;5050336;28;20029;-56
2022/01/26 03:45:50;;;;;;;49.85;28.02;;;;;;;;;;5050267;28;20418;-50
2022/01/26 03:48:16;;;;;;;50.65;27.98;;;;;;;;;;5050486;28;20052;-54
2022/01/26 03:50:42;;;;;;;46.20;27.58;;;;;;;;;;5054046;28;20135;-50
2022/01/26 03:53:08;;;;;;;52.15;29.45;;;;;;;;;;5053817;28;20083;-50
2022/01/26 03:55:34;;;;;;;51.53;28.80;;;;;;;;;;5053702;28;20033;-50
2022/01/26 03:58:01;;;;;;;49.25;27.85;;;;;;;;;;5057290;28;20480;-51
2022/01/26 04:00:27;;;;;;;45.97;27.55;;;;;;;;;;5075830;28;20038;-51
2022/01/26 04:02:53;;;;;;;52.88;29.08;;;;;;;;;;5075817;28;20024;-51
2022/01/26 04:05:19;;;;;;;48.05;27.92;;;;;;;;;;5075831;28;20036;-52
2022/01/26 04:07:46;;;;;;;53.05;28.55;;;;;;;;;;5075592;28;20020;-54
2022/01/26 04:10:31;;;;;;;50.38;28.40;;;;;;;;;;5075687;28;20040;-51
2022/01/26 04:12:58;;;;;;;56.85;30.25;;;;;;;;;;5075532;28;20032;-51
2022/01/26 04:15:28;;;;;;;52.60;29.38;;;;;;;;;;5075586;28;20032;-50
2022/01/26 04:17:55;;;;;;;52.90;30.07;;;;;;;;;;5075569;28;20044;-52
2022/01/26 04:20:25;;;;;;;55.97;30.13;;;;;;;;;;5075439;28;20033;-51
2022/01/26 04:23:08;;;;;;;51.83;29.80;;;;;;;;;;5075296;28;20031;-52
2022/01/26 04:25:35;;;;;;;49.75;27.58;;;;;;;;;;5075239;28;20073;-51
2022/01/26 04:28:06;;;;;;;52.25;28.48;;;;;;;;;;5075086;28;20041;-51
2022/01/26 04:30:32;;;;;;;52.20;28.17;;;;;;;;;;5075358;28;20060;-50
2022/01/26 04:33:03;;;;;;;55.80;29.95;;;;;;;;;;5075106;28;20032;-50
2022/01/26 04:35:29;;;;;;;67.47;32.50;;;;;;;;;;5075274;28;20021;-50
2022/01/26 04:40:35;;;;;;;64.05;34.20;;;;;;;;;;5075358;28;20506;-52
2022/01/26 04:43:06;;;;;;;68.68;35.67;;;;;;;;;;5075132;28;20526;-53
2022/01/26 04:45:32;;;;;;;68.20;38.33;;;;;;;;;;5073499;28;20078;-48
2022/01/26 04:47:58;;;;;;;68.70;36.17;;;;;;;;;;5074842;28;20031;-55
2022/01/26 04:50:24;;;;;;;70.88;36.78;;;;;;;;;;5074840;28;20024;-50
2022/01/26 04:52:50;;;;;;;65.00;35.60;;;;;;;;;;5074800;28;20033;-51
2022/01/26 04:55:16;;;;;;;73.30;37.85;;;;;;;;;;5074648;28;20072;-49
2022/01/26 04:57:42;;;;;;;67.45;35.15;;;;;;;;;;5074568;28;20036;-51
2022/01/26 05:00:09;;;;;;;66.63;34.15;;;;;;;;;;5074394;28;20028;-49
2022/01/26 05:02:35;;;;;;;60.42;33.13;;;;;;;;;;5074533;28;20028;-48
2022/01/26 05:05:02;;;;;;;59.20;31.98;;;;;;;;;;5074812;28;20154;-50
2022/01/26 05:07:28;;;;;;;66.97;35.40;;;;;;;;;;5073241;28;20498;-50
2022/01/26 05:09:54;;;;;;;62.38;33.50;;;;;;;;;;5074492;28;20035;-50
2022/01/26 05:12:20;;;;;;;65.55;35.08;;;;;;;;;;5074201;28;20035;-52
2022/01/26 05:14:48;;;;;;;68.95;36.15;;;;;;;;;;5073377;28;20123;-52
2022/01/26 05:17:15;;;;;;;65.75;36.90;;;;;;;;;;5074190;28;20384;-51
2022/01/26 05:19:42;;;;;;;73.90;37.53;;;;;;;;;;5074449;28;20028;-50
2022/01/26 05:22:08;;;;;;;79.75;39.47;;;;;;;;;;5074394;28;20457;-51
2022/01/26 05:24:34;;;;;;;76.70;38.78;;;;;;;;;;5074186;28;20035;-55
2022/01/26 05:27:00;;;;;;;81.45;40.35;;;;;;;;;;5074072;28;20108;-50
2022/01/26 05:29:26;;;;;;;79.60;39.63;;;;;;;;;;5073888;28;20074;-50
2022/01/26 05:31:52;;;;;;;75.47;38.45;;;;;;;;;;5074073;28;20111;-50
2022/01/26 05:34:18;;;;;;;79.47;38.75;;;;;;;;;;5074014;28;20032;-51
2022/01/26 05:36:44;;;;;;;81.05;40.70;;;;;;;;;;5074118;28;20021;-50
2022/01/26 05:39:10;;;;;;;76.38;39.90;;;;;;;;;;5074160;28;20024;-50
2022/01/26 05:41:38;;;;;;;70.15;38.30;;;;;;;;;;5073958;28;20069;-54
2022/01/26 05:44:05;;;;;;;77.72;40.58;;;;;;;;;;5073842;28;20096;-53
2022/01/26 05:46:42;;;;;;;76.40;39.95;;;;;;;;;;5073771;28;20027;-51
2022/01/26 05:49:08;;;;;;;69.20;36.28;;;;;;;;;;5073863;28;20016;-53
2022/01/26 05:51:34;;;;;;;67.57;37.58;;;;;;;;;;5073810;28;20069;-50
2022/01/26 05:54:05;;;;;;;85.55;42.92;;;;;;;;;;5074033;28;20028;-50
2022/01/26 05:56:31;;;;;;;78.30;41.38;;;;;;;;;;5073578;28;20021;-51
2022/01/26 05:58:58;;;;;;;63.10;34.20;;;;;;;;;;5073969;28;20031;-50
2022/01/26 06:01:24;;;;;;;74.70;40.03;;;;;;;;;;5063854;28;20067;-51
2022/01/26 06:03:50;;;;;;;76.03;40.45;;;;;;;;;;5053467;28;20033;-51
2022/01/26 06:06:17;;;;;;;90.75;43.05;;;;;;;;;;5053624;28;20017;-50
2022/01/26 06:08:45;;;;;;;88.45;45.45;;;;;;;;;;5053473;28;20021;-51
2022/01/26 06:11:11;;;;;;;82.45;43.28;;;;;;;;;;5052752;28;20029;-51
2022/01/26 06:13:37;;;;;;;83.63;41.92;;;;;;;;;;5053560;28;20485;-52
2022/01/26 06:16:04;;;;;;;74.00;38.65;;;;;;;;;;5053319;28;20025;-54
2022/01/26 06:18:30;;;;;;;70.50;37.33;;;;;;;;;;5053736;28;20429;-51
2022/01/26 06:20:56;;;;;;;73.40;39.90;;;;;;;;;;5053452;28;20043;-54
2022/01/26 06:23:25;;;;;;;82.15;44.30;;;;;;;;;;5053383;28;20131;-51
2022/01/26 06:25:51;;;;;;;75.07;42.22;;;;;;;;;;5053284;28;20021;-52
2022/01/26 06:28:18;;;;;;;86.85;44.53;;;;;;;;;;5053044;28;20049;-53
2022/01/26 06:30:47;;;;;;;78.05;41.40;;;;;;;;;;5053004;28;20055;-52
2022/01/26 06:33:13;;;;;;;65.30;36.60;;;;;;;;;;5052987;28;20479;-51
2022/01/26 06:35:40;;;;;;;62.47;34.67;;;;;;;;;;5053218;28;20025;-51
2022/01/26 06:38:06;;;;;;;62.00;34.95;;;;;;;;;;5053150;28;20028;-54
2022/01/26 06:40:32;;;;;;;58.70;33.38;;;;;;;;;;5053085;28;20033;-51
2022/01/26 06:43:07;;;;;;;64.95;37.38;;;;;;;;;;5052953;28;20017;-52
2022/01/26 06:45:37;;;;;;;68.43;37.03;;;;;;;;;;5052771;28;20618;-51
2022/01/26 06:50:39;;;;;;;74.47;38.15;;;;;;;;;;5052892;28;20074;-54
2022/01/26 06:53:06;;;;;;;68.30;36.35;;;;;;;;;;5052720;28;20040;-54
2022/01/26 06:55:32;;;;;;;58.53;34.50;;;;;;;;;;5052902;28;20021;-54
2022/01/26 06:57:58;;;;;;;58.22;31.90;;;;;;;;;;5051687;28;20082;-51
2022/01/26 07:00:26;;;;;;;62.75;33.95;;;;;;;;;;5052740;28;20037;-51
2022/01/26 07:02:54;;;;;;;63.83;36.40;;;;;;;;;;5052851;28;20523;-52
2022/01/26 07:05:21;;;;;;;67.63;38.78;;;;;;;;;;5052768;28;20420;-49
2022/01/26 07:07:47;;;;;;;73.25;39.50;;;;;;;;;;5052785;28;20017;-54
2022/01/26 07:10:13;;;;;;;68.35;37.55;;;;;;;;;;5052585;28;20029;-50
2022/01/26 07:12:40;;;;;;;72.35;37.78;;;;;;;;;;5052337;28;20032;-48
2022/01/26 07:23:05;;;;;;;94.70;45.65;;;;;;;;;;5054178;28;20029;-48
2022/01/26 07:25:34;;;;;;;89.30;44.92;;;;;;;;;;5056462;28;20029;-49
2022/01/26 07:28:04;;;;;;;91.53;43.78;;;;;;;;;;5056219;28;20500;-50
2022/01/26 07:30:31;;;;;;;91.32;43.05;;;;;;;;;;5056467;28;20079;-49
2022/01/26 07:32:57;;;;;;;89.47;44.30;;;;;;;;;;5056245;28;20053;-49
2022/01/26 07:35:23;;;;;;;98.82;46.13;;;;;;;;;;5056158;28;20103;-57
2022/01/26 07:37:52;;;;;;;102.78;46.72;;;;;;;;;;5056241;28;20017;-53
2022/01/26 07:40:18;;;;;;;111.93;53.47;;;;;;;;;;5056218;28;20025;-50
2022/01/26 07:42:44;;;;;;;104.60;49.17;;;;;;;;;;5056166;28;20052;-50
2022/01/26 07:45:11;;;;;;;95.57;44.45;;;;;;;;;;5054892;28;20112;-56
2022/01/26 07:47:38;;;;;;;102.78;47.55;;;;;;;;;;5056086;28;20017;-50
2022/01/26 07:50:06;;;;;;;119.13;49.70;;;;;;;;;;5056176;28;20462;-54
2022/01/26 07:52:37;;;;;;;151.82;59.90;;;;;;;;;;5056095;28;20025;-55
2022/01/26 07:55:04;;;;;;;163.63;65.40;;;;;;;;;;5056027;28;20053;-56
2022/01/26 07:57:30;;;;;;;170.60;65.80;;;;;;;;;;5055769;28;20028;-49
2022/01/26 08:00:00;;;;;;;123.47;49.40;;;;;;;;;;5055924;28;20029;-46
2022/01/26 08:02:26;;;;;;;145.20;64.65;;;;;;;;;;5055850;28;20408;-46
2022/01/26 08:04:52;;;;;;;152.55;64.05;;;;;;;;;;5055711;28;20075;-46
2022/01/26 08:07:18;;;;;;;131.80;57.72;;;;;;;;;;5055625;28;20036;-51
2022/01/26 08:09:45;;;;;;;123.90;58.15;;;;;;;;;;5055562;28;20423;-52
2022/01/26 08:12:12;;;;;;;130.65;60.78;;;;;;;;;;5055630;28;20048;-50
2022/01/26 08:14:38;;;;;;;111.95;51.90;;;;;;;;;;5055666;28;20052;-53
2022/01/26 08:17:05;;;;;;;101.60;50.92;;;;;;;;;;5055771;28;20580;-47
2022/01/26 08:19:31;;;;;;;104.55;50.25;;;;;;;;;;5055823;28;20025;-47
2022/01/26 08:22:00;;;;;;;90.57;46.05;;;;;;;;;;5055358;28;20017;-46
2022/01/26 08:24:27;;;;;;;90.30;46.35;;;;;;;;;;5055921;28;20029;-49
2022/01/26 08:26:58;;;;;;;89.95;46.42;;;;;;;;;;5055526;28;20052;-49
2022/01/26 08:29:29;;;;;;;99.27;52.33;;;;;;;;;;5055164;28;20047;-47
2022/01/26 08:31:55;;;;;;;91.22;48.97;;;;;;;;;;5055328;28;20289;-51
2022/01/26 08:34:21;;;;;;;98.97;49.65;;;;;;;;;;5054384;28;20132;-47
2022/01/26 08:36:48;;;;;;;91.65;47.35;;;;;;;;;;5055066;28;20021;-48
2022/01/26 08:39:14;;;;;;;85.28;44.03;;;;;;;;;;5055284;28;20443;-47
2022/01/26 08:41:42;;;;;;;76.68;42.53;;;;;;;;;;5054972;28;20067;-49
2022/01/26 08:44:08;;;;;;;75.63;41.88;;;;;;;;;;5054947;28;20040;-48
2022/01/26 08:46:34;;;;;;;69.63;37.67;;;;;;;;;;5055069;28;20032;-48
2022/01/26 08:49:00;;;;;;;92.55;43.58;;;;;;;;;;5054864;28;20465;-56
2022/01/26 08:51:26;;;;;;;88.97;41.78;;;;;;;;;;5054790;28;20100;-49
2022/01/26 08:53:52;;;;;;;72.45;38.33;;;;;;;;;;5054753;28;20068;-49
2022/01/26 08:56:18;;;;;;;67.00;37.80;;;;;;;;;;5054658;28;20070;-51
2022/01/26 08:58:44;;;;;;;73.20;41.33;;;;;;;;;;5054751;28;20025;-48
2022/01/26 09:01:10;;;;;;;92.25;49.08;;;;;;;;;;5054784;28;20029;-48
2022/01/26 09:03:39;;;;;;;109.15;58.22;;;;;;;;;;5054762;28;20037;-48
2022/01/26 09:06:08;;;;;;;98.82;51.67;;;;;;;;;;5054388;28;20457;-44
2022/01/26 09:08:34;;;;;;;119.22;55.30;;;;;;;;;;5054604;28;20029;-48
2022/01/26 09:11:03;;;;;;;119.78;56.13;;;;;;;;;;5054500;28;20465;-49
2022/01/26 09:13:31;;;;;;;110.95;52.28;;;;;;;;;;5053570;28;20140;-54
2022/01/26 09:15:57;;;;;;;89.15;42.00;;;;;;;;;;5054355;28;20025;-49
2022/01/26 09:18:34;;;;;;;80.25;40.25;;;;;;;;;;5054423;28;20027;-48
2022/01/26 09:21:00;;;;;;;81.35;40.25;;;;;;;;;;5054168;28;20036;-52
2022/01/26 09:23:26;;;;;;;74.45;38.95;;;;;;;;;;5054452;28;20036;-45
2022/01/26 09:25:52;;;;;;;74.15;38.63;;;;;;;;;;5054327;28;20025;-55
2022/01/26 09:28:18;;;;;;;77.32;41.75;;;;;;;;;;5053901;28;20049;-45
2022/01/26 09:30:45;;;;;;;87.22;48.78;;;;;;;;;;5054281;28;20029;-51
2022/01/26 09:33:13;;;;;;;83.13;43.53;;;;;;;;;;5052747;28;20618;-46
2022/01/26 09:35:39;;;;;;;100.22;51.40;;;;;;;;;;5053961;28;20047;-48
2022/01/26 09:38:05;;;;;;;91.35;48.22;;;;;;;;;;5054050;28;20052;-46
2022/01/26 09:40:33;;;;;;;89.97;47.28;;;;;;;;;;5054145;28;20037;-48
2022/01/26 09:43:00;;;;;;;79.50;44.60;;;;;;;;;;5054055;28;20485;-52
2022/01/26 09:45:28;;;;;;;79.35;44.03;;;;;;;;;;5053556;28;20033;-45
2022/01/26 09:47:54;;;;;;;75.45;40.00;;;;;;;;;;5053376;28;20465;-45
2022/01/26 09:50:20;;;;;;;74.88;41.88;;;;;;;;;;5053693;28;20021;-45
2022/01/26 09:52:48;;;;;;;72.20;38.88;;;;;;;;;;5053613;28;20481;-52
2022/01/26 09:55:16;;;;;;;75.43;40.13;;;;;;;;;;5053927;28;20512;-46
2022/01/26 09:57:43;;;;;;;73.38;39.40;;;;;;;;;;5053585;28;20554;-44
2022/01/26 10:00:09;;;;;;;97.38;46.80;;;;;;;;;;5053525;28;20033;-46
2022/01/26 10:02:36;;;;;;;95.97;48.63;;;;;;;;;;5053588;28;20535;-45
2022/01/26 10:05:06;;;;;;;102.22;50.70;;;;;;;;;;5053455;28;20033;-45
2022/01/26 10:07:55;;;;;;;86.72;45.50;;;;;;;;;;5053706;28;20362;-44
2022/01/26 10:15:39;;;;;;;83.13;43.97;;;;;;;;;;5053495;28;20071;-46
2022/01/26 10:18:13;;;;;;;81.88;44.83;;;;;;;;;;5053642;28;20025;-45
2022/01/26 10:20:42;;;;;;;87.38;45.15;;;;;;;;;;5052420;28;20056;-45
2022/01/26 10:23:12;;;;;;;81.72;41.28;;;;;;;;;;5053479;28;20036;-50
2022/01/26 10:25:38;;;;;;;79.03;38.75;;;;;;;;;;5053402;28;20438;-45
2022/01/26 10:28:05;;;;;;;82.68;40.95;;;;;;;;;;5052934;28;20041;-51
2022/01/26 10:30:33;;;;;;;82.45;38.65;;;;;;;;;;5051944;28;20083;-45
2022/01/26 10:32:59;;;;;;;74.53;39.28;;;;;;;;;;5053293;28;20487;-51
2022/01/26 10:35:26;;;;;;;98.80;48.00;;;;;;;;;;5053437;28;20114;-47
2022/01/26 10:37:53;;;;;;;101.55;50.80;;;;;;;;;;5053071;28;20032;-44
2022/01/26 10:40:22;;;;;;;75.95;39.15;;;;;;;;;;5053256;28;20021;-45
2022/01/26 10:43:08;;;;;;;70.10;38.40;;;;;;;;;;5052961;28;20029;-45
2022/01/26 10:48:26;;;;;;;64.78;34.40;;;;;;;;;;5053009;28;20102;-44
2022/01/26 10:53:44;;;;;;;66.07;35.17;;;;;;;;;;5053260;28;20110;-45
2022/01/26 10:56:15;;;;;;;59.00;33.65;;;;;;;;;;5053174;28;20108;-46
2022/01/26 10:58:41;;;;;;;57.05;31.70;;;;;;;;;;5055807;28;20424;-46
2022/01/26 11:01:08;;;;;;;50.05;29.52;;;;;;;;;;5057148;28;20060;-45
2022/01/26 11:03:34;;;;;;;54.28;28.92;;;;;;;;;;5057042;28;20021;-45
2022/01/26 11:06:01;;;;;;;53.72;30.60;;;;;;;;;;5056865;28;20032;-47
2022/01/26 11:08:28;;;;;;;49.60;29.38;;;;;;;;;;5056941;28;20079;-44
2022/01/26 11:10:54;;;;;;;52.88;30.30;;;;;;;;;;5055841;28;20057;-56
2022/01/26 11:13:39;;;;;;;55.20;30.33;;;;;;;;;;5056634;28;20115;-55
2022/01/26 11:16:08;;;;;;;51.38;29.33;;;;;;;;;;5056814;28;20021;-58
2022/01/26 11:18:44;;;;;;;53.30;31.02;;;;;;;;;;5056699;28;20093;-58
2022/01/26 11:21:14;;;;;;;54.30;31.75;;;;;;;;;;5056582;28;20017;-45
2022/01/26 11:23:40;;;;;;;58.15;31.63;;;;;;;;;;5056732;28;20520;-51
2022/01/26 11:26:07;;;;;;;60.60;35.03;;;;;;;;;;5056535;28;20035;-52
2022/01/26 11:28:33;;;;;;;67.80;34.70;;;;;;;;;;5056304;28;20053;-47
2022/01/26 11:31:05;;;;;;;59.30;32.63;;;;;;;;;;5056439;28;20025;-46
2022/01/26 11:33:33;;;;;;;117.50;58.67;;;;;;;;;;5056510;28;20124;-55
2022/01/26 11:36:03;;;;;;;104.18;56.50;;;;;;;;;;5056688;28;20017;-46
2022/01/26 11:46:32;;;;;;;72.53;38.70;;;;;;;;;;5056582;28;20086;-49
2022/01/26 11:49:00;;;;;;;69.32;36.80;;;;;;;;;;5056360;28;20028;-50
2022/01/26 11:51:26;;;;;;;62.95;34.55;;;;;;;;;;5056095;28;20055;-50
2022/01/26 11:53:52;;;;;;;59.97;32.70;;;;;;;;;;5055975;28;20540;-49
2022/01/26 11:56:21;;;;;;;56.92;31.65;;;;;;;;;;5056007;28;20025;-49
2022/01/26 11:58:50;;;;;;;51.60;28.55;;;;;;;;;;5056082;28;20028;-48
2022/01/26 12:01:25;;;;;;;60.70;33.40;;;;;;;;;;5056362;28;20029;-49
2022/01/26 12:04:01;;;;;;;55.83;30.33;;;;;;;;;;5055882;28;20432;-49
2022/01/26 12:06:35;;;;;;;58.03;31.25;;;;;;;;;;5055841;28;20017;-49
2022/01/26 12:09:03;;;;;;;72.40;35.45;;;;;;;;;;5054637;28;20465;-49
2022/01/26 12:11:29;;;;;;;67.63;33.70;;;;;;;;;;5055646;28;20021;-49
2022/01/26 12:13:59;;;;;;;62.95;31.67;;;;;;;;;;5055443;28;20039;-49
2022/01/26 12:16:32;;;;;;;73.45;35.67;;;;;;;;;;5055671;28;20466;-49
2022/01/26 12:19:24;;;;;;;67.40;36.03;;;;;;;;;;5055455;28;20085;-49
2022/01/26 12:32:09;;;;;;;61.15;34.28;;;;;;;;;;5055724;28;20032;-49
2022/01/26 12:36:29;;;;;;;55.45;30.83;;;;;;;;;;5055187;28;20021;-49
2022/01/26 12:39:00;;;;;;;54.65;29.52;;;;;;;;;;5055265;28;20017;-47
2022/01/26 12:43:57;;;;;;;63.22;34.22;;;;;;;;;;5055002;28;20056;-50
2022/01/26 12:46:23;;;;;;;70.73;34.37;;;;;;;;;;5054996;28;20473;-48
2022/01/26 12:48:50;;;;;;;80.25;40.78;;;;;;;;;;5055334;28;20028;-48
2022/01/26 12:51:17;;;;;;;76.43;41.08;;;;;;;;;;5055066;28;20032;-48
2022/01/26 12:53:43;;;;;;;85.28;43.40;;;;;;;;;;5054960;28;20461;-49
2022/01/26 12:56:13;;;;;;;81.32;40.83;;;;;;;;;;5054849;28;20044;-49
2022/01/26 12:58:40;;;;;;;76.03;38.08;;;;;;;;;;5054630;28;20024;-48
2022/01/26 13:01:08;;;;;;;71.47;35.78;;;;;;;;;;5054817;28;20032;-49
2022/01/26 13:03:36;;;;;;;78.25;38.97;;;;;;;;;;5054718;28;20488;-49
2022/01/26 13:06:09;;;;;;;80.05;39.47;;;;;;;;;;5054660;28;20021;-49
2022/01/26 13:08:42;;;;;;;74.72;37.95;;;;;;;;;;5055120;28;20059;-48
2022/01/26 13:11:08;;;;;;;80.30;40.17;;;;;;;;;;5054633;28;20424;-49
2022/01/26 13:13:34;;;;;;;82.97;41.55;;;;;;;;;;5054381;28;20112;-48
2022/01/26 13:16:12;;;;;;;84.38;42.75;;;;;;;;;;5054335;28;20025;-49
2022/01/26 13:19:04;;;;;;;92.05;46.30;;;;;;;;;;5054276;28;20033;-48
2022/01/26 13:21:57;;;;;;;93.53;46.53;;;;;;;;;;5054144;28;20029;-49
2022/01/26 13:24:36;;;;;;;84.47;41.47;;;;;;;;;;5054214;28;20415;-49
2022/01/26 13:27:15;;;;;;;93.20;43.95;;;;;;;;;;5054021;28;20024;-48
2022/01/26 13:40:43;;;;;;;96.25;49.25;;;;;;;;;;5053955;28;20025;-51
2022/01/26 13:53:46;;;;;;;80.03;42.40;;;;;;;;;;5031576;28;20052;-50
2022/01/26 13:56:34;;;;;;;95.07;48.58;;;;;;;;;;5017400;28;20099;-49
2022/01/26 13:59:17;;;;;;;116.95;56.10;;;;;;;;;;5031278;28;20037;-47
2022/01/26 14:01:45;;;;;;;118.68;55.03;;;;;;;;;;5031484;28;20394;-54
2022/01/26 14:04:12;;;;;;;192.35;83.93;;;;;;;;;;5031293;28;20079;-47
2022/01/26 14:06:38;;;;;;;159.88;68.55;;;;;;;;;;5031276;28;20087;-57
2022/01/26 14:09:05;;;;;;;128.60;54.90;;;;;;;;;;5031228;28;20472;-47
2022/01/26 14:11:31;;;;;;;166.82;74.47;;;;;;;;;;5031150;28;20025;-47
2022/01/26 14:13:58;;;;;;;122.13;55.42;;;;;;;;;;5031143;28;20116;-47
2022/01/26 14:16:26;;;;;;;125.15;58.28;;;;;;;;;;5031143;28;20536;-49
2022/01/26 14:22:05;;;;;;;104.65;49.33;;;;;;;;;;5031063;28;20120;-48
2022/01/26 14:24:31;;;;;;;84.85;41.92;;;;;;;;;;5031063;28;20026;-49
2022/01/26 14:27:00;;;;;;;139.80;67.93;;;;;;;;;;5037586;28;20099;-54
2022/01/26 14:29:36;;;;;;;122.90;59.97;;;;;;;;;;5034014;28;20072;-51
2022/01/26 14:40:41;;;;;;;98.43;47.92;;;;;;;;;;5020901;28;20536;-48
2022/01/26 15:34:44;;;;;;;95.63;47.80;;;;;;;;;;5020273;28;20095;-51
2022/01/26 15:50:42;;;;;;;160.07;81.72;;;;;;;;;;5024456;28;20036;-49
2022/01/26 15:58:26;;;;;;;111.97;54.92;;;;;;;;;;5024296;28;20035;-51
2022/01/26 16:17:46;;;;;;;105.30;51.05;;;;;;;;;;5024103;28;20123;-52
2022/01/26 16:39:27;;;;;;;76.88;41.63;;;;;;;;;;5014987;28;20540;-49
2022/01/26 17:34:27;;;;;;;95.63;51.13;;;;;;;;;;4943923;28;20041;-49
2022/01/26 18:16:00;;;;;;;287.88;115.55;;;;;;;;;;5022321;28;20025;-50
2022/01/26 18:50:55;;;;;;;133.95;69.38;;;;;;;;;;5021183;28;20040;-49
2022/01/26 18:53:21;;;;;;;139.52;70.05;;;;;;;;;;5022169;28;20029;-48
2022/01/26 18:55:47;;;;;;;152.68;81.63;;;;;;;;;;5020861;28;20154;-48
2022/01/26 18:58:13;;;;;;;145.50;72.22;;;;;;;;;;5020516;28;20529;-49
2022/01/26 19:00:44;;;;;;;112.00;53.08;;;;;;;;;;5020555;28;20120;-48
2022/01/26 19:03:10;;;;;;;128.75;66.53;;;;;;;;;;5020925;28;20062;-49
2022/01/26 19:05:36;;;;;;;125.22;61.78;;;;;;;;;;5022636;28;20519;-49
2022/01/26 19:08:04;;;;;;;99.72;50.47;;;;;;;;;;5022011;28;20071;-49
2022/01/26 19:10:30;;;;;;;111.47;60.95;;;;;;;;;;5022099;28;20853;-50
2022/01/26 19:12:57;;;;;;;96.68;50.72;;;;;;;;;;5022265;28;20401;-48
2022/01/26 19:15:28;;;;;;;126.03;69.20;;;;;;;;;;5020403;28;20598;-49
2022/01/26 19:18:00;;;;;;;101.10;51.80;;;;;;;;;;5020451;28;20024;-49
2022/01/26 19:25:52;;;;;;;117.00;61.15;;;;;;;;;;5024685;28;20060;-48
2022/01/26 19:28:30;;;;;;;100.65;51.97;;;;;;;;;;5024323;28;20131;-48
2022/01/26 19:43:13;;;;;;;74.15;41.50;;;;;;;;;;5024445;28;20136;-48
2022/01/26 19:44:50;;;;;;;76.18;39.75;;;;;;;;;;5025528;28;20393;-49
2022/01/26 19:52:46;;;;;;;87.10;47.05;;;;;;;;;;5024696;28;20633;-49
2022/01/26 19:55:13;;;;;;;65.88;37.90;;;;;;;;;;5024065;28;20044;-49
2022/01/26 19:57:41;;;;;;;70.20;39.15;;;;;;;;;;5025645;28;20035;-48
2022/01/26 20:00:08;;;;;;;78.93;44.33;;;;;;;;;;5024093;28;20029;-48
2022/01/26 20:02:34;;;;;;;70.90;38.90;;;;;;;;;;5023962;28;20108;-48
2022/01/26 20:05:00;;;;;;;84.80;46.28;;;;;;;;;;5024008;28;20028;-48
2022/01/26 20:07:29;;;;;;;78.60;42.03;;;;;;;;;;5023868;28;20025;-48
2022/01/26 20:09:59;;;;;;;77.55;41.42;;;;;;;;;;5024830;28;20835;-49
2022/01/26 20:12:43;;;;;;;82.93;44.15;;;;;;;;;;5024751;28;20136;-49
2022/01/26 20:15:09;;;;;;;73.93;39.83;;;;;;;;;;5023418;28;20442;-48
2022/01/26 20:17:36;;;;;;;75.85;41.55;;;;;;;;;;5023589;28;20029;-49
2022/01/26 20:20:04;;;;;;;74.97;40.33;;;;;;;;;;5023779;28;20021;-50
2022/01/26 20:22:30;;;;;;;70.70;40.85;;;;;;;;;;5023382;28;20730;-48
2022/01/26 20:24:56;;;;;;;75.57;44.20;;;;;;;;;;5033227;28;20068;-48
2022/01/26 20:27:23;;;;;;;76.38;41.10;;;;;;;;;;5032852;28;20087;-48
2022/01/26 20:29:58;;;;;;;69.65;40.42;;;;;;;;;;5023263;28;20850;-48
2022/01/26 20:32:24;;;;;;;80.82;41.65;;;;;;;;;;5023430;28;20124;-48
2022/01/26 20:34:50;;;;;;;77.28;42.90;;;;;;;;;;5023175;28;20170;-48
2022/01/26 20:37:17;;;;;;;74.50;41.70;;;;;;;;;;5023158;28;20152;-48
2022/01/26 20:39:43;;;;;;;80.50;42.88;;;;;;;;;;5023658;28;20289;-48
2022/01/26 20:42:09;;;;;;;76.60;42.10;;;;;;;;;;5023494;28;20031;-48
2022/01/26 20:44:35;;;;;;;73.93;40.42;;;;;;;;;;5022949;28;20033;-49
2022/01/26 20:47:03;;;;;;;73.93;41.65;;;;;;;;;;5023109;28;20036;-48
2022/01/26 20:49:29;;;;;;;76.90;43.17;;;;;;;;;;5022862;28;20063;-49
2022/01/26 20:51:56;;;;;;;75.70;41.65;;;;;;;;;;5022927;28;20018;-50
2022/01/26 20:54:22;;;;;;;79.82;41.53;;;;;;;;;;5024090;28;20048;-50
2022/01/26 20:56:48;;;;;;;78.20;41.60;;;;;;;;;;5023453;28;20024;-51
2022/01/26 20:59:14;;;;;;;76.95;41.85;;;;;;;;;;5022996;28;20055;-51
2022/01/26 21:01:40;;;;;;;76.65;42.92;;;;;;;;;;5022792;28;20035;-50
2022/01/26 21:04:07;;;;;;;87.18;45.13;;;;;;;;;;5022807;28;20481;-49
2022/01/26 21:06:33;;;;;;;76.80;43.58;;;;;;;;;;5022509;28;20156;-50
2022/01/26 21:08:59;;;;;;;83.80;46.10;;;;;;;;;;5022545;28;20116;-51
2022/01/26 21:11:25;;;;;;;81.72;45.05;;;;;;;;;;5022670;28;20067;-49
2022/01/26 21:13:54;;;;;;;89.68;47.95;;;;;;;;;;5022561;28;20440;-49
2022/01/26 21:16:22;;;;;;;95.35;50.20;;;;;;;;;;5022445;28;20133;-48
2022/01/26 21:18:48;;;;;;;80.00;44.70;;;;;;;;;;5023070;28;20017;-49